createdAt,value
2023-05-02T00:02:36.073Z,101018.09
2023-05-02T00:07:41.832Z,101019.91
2023-05-02T00:12:47.045Z,101021.94
2023-05-02T00:17:52.256Z,101020.31
2023-05-02T00:23:00.411Z,101024.72
2023-05-02T00:28:06.335Z,101026.72
2023-05-02T00:33:13.415Z,101020.66
2023-05-02T00:38:18.891Z,101005.72
2023-05-02T00:43:24.997Z,101007.91
2023-05-02T00:48:30.956Z,101004.88
2023-05-02T00:53:37.057Z,101013.50
2023-05-02T00:58:43.135Z,101006.16
2023-05-02T01:04:01.966Z,101020.28
2023-05-02T01:09:31.953Z,101010.66
2023-05-02T01:14:47.781Z,101006.38
2023-05-02T01:19:57.431Z,101009.66
2023-05-02T01:25:52.132Z,101020.44
2023-05-02T01:30:57.695Z,101016.16
2023-05-02T01:36:04.185Z,101017.34
2023-05-02T01:41:11.828Z,101020.22
2023-05-02T01:46:18.159Z,101023.91
2023-05-02T01:51:32.513Z,101015.50
2023-05-02T01:56:40.285Z,101026.69
2023-05-02T02:01:47.042Z,101012.88
2023-05-02T02:07:00.638Z,101038.44
2023-05-02T02:12:12.795Z,101051.41
2023-05-02T02:17:26.907Z,101045.44
2023-05-02T02:22:38.113Z,101049.56
2023-05-02T02:27:44.499Z,101047.41
2023-05-02T02:32:49.974Z,101047.78
2023-05-02T02:38:40.781Z,101051.88
2023-05-02T02:43:54.873Z,101056.00
2023-05-02T02:49:37.703Z,101062.53
2023-05-02T02:55:00.216Z,101078.78
2023-05-02T03:00:21.952Z,101083.75
2023-05-02T03:05:27.159Z,101073.81
2023-05-02T03:10:34.303Z,101079.13
2023-05-02T03:15:54.445Z,101091.06
2023-05-02T03:21:07.568Z,101063.81
2023-05-02T03:26:14.220Z,101085.41
2023-05-02T03:31:18.627Z,101089.13
2023-05-02T03:36:24.038Z,101097.34
2023-05-02T03:41:32.578Z,101107.75
2023-05-02T03:46:43.846Z,101096.63
2023-05-02T03:51:50.735Z,101102.97
2023-05-02T03:57:05.378Z,101113.28
2023-05-02T04:02:13.031Z,101115.38
2023-05-02T04:07:26.418Z,101114.59
2023-05-02T04:12:37.979Z,101120.88
2023-05-02T04:17:42.725Z,101141.72
2023-05-02T04:22:50.817Z,101152.19
2023-05-02T04:27:57.735Z,101149.41
2023-05-02T04:33:04.306Z,101152.97
2023-05-02T04:38:16.504Z,101162.50
2023-05-02T04:43:24.934Z,101171.00
2023-05-02T04:48:35.447Z,101169.88
2023-05-02T04:53:44.732Z,101172.22
2023-05-02T05:06:39.272Z,101170.59
2023-05-02T05:11:47.709Z,101198.56
2023-05-02T05:16:53.859Z,101202.81
2023-05-02T06:05:40.073Z,101175.09
2023-05-02T06:10:45.541Z,101166.91
2023-05-02T06:15:50.514Z,101192.03
2023-05-02T06:20:55.549Z,101203.66
2023-05-02T06:26:04.495Z,101177.19
2023-05-02T06:31:08.895Z,101182.69
2023-05-02T06:36:13.213Z,101173.47
2023-05-02T06:41:18.302Z,101166.84
2023-05-02T06:46:22.870Z,101178.41
2023-05-02T06:51:28.293Z,101192.38
2023-05-02T06:56:36.030Z,101149.66
2023-05-02T07:01:40.392Z,101187.13
2023-05-02T07:06:44.893Z,101191.16
2023-05-02T07:11:51.090Z,101193.41
2023-05-02T07:16:55.496Z,101183.72
2023-05-02T07:21:59.871Z,101170.31
2023-05-02T08:33:56.685Z,101180.84
2023-05-02T08:39:00.989Z,101147.28
2023-05-02T08:44:08.522Z,101172.09
2023-05-02T08:49:14.460Z,101160.56
2023-05-02T08:54:20.547Z,101178.03
2023-05-02T08:59:24.772Z,101184.22
2023-05-02T09:04:35.449Z,101181.19
2023-05-02T09:09:39.665Z,101175.72
2023-05-02T09:14:45.951Z,101180.66
2023-05-02T09:20:01.562Z,101185.59
2023-05-02T09:25:08.353Z,101206.50
2023-05-02T09:30:27.009Z,101209.94
2023-05-02T09:35:31.605Z,101200.84
2023-05-02T09:40:36.638Z,101213.25
2023-05-02T09:45:40.990Z,101219.38
2023-05-02T09:50:45.240Z,101229.16
2023-05-02T09:55:59.824Z,101226.34
2023-05-02T10:01:04.467Z,101187.31
2023-05-02T10:06:10.871Z,101226.75
2023-05-02T10:11:15.996Z,101211.97
2023-05-02T10:16:29.687Z,101204.31
2023-05-02T10:21:35.468Z,101225.19
2023-05-02T10:26:40.367Z,101222.59
2023-05-02T10:31:46.410Z,101204.53
2023-05-02T10:36:50.474Z,101232.31
2023-05-02T10:41:56.308Z,101236.41
2023-05-02T10:47:00.974Z,101249.44
2023-05-02T10:52:34.895Z,101253.09
2023-05-02T10:58:01.918Z,101253.97
2023-05-02T11:03:06.947Z,101264.59
2023-05-02T11:08:20.270Z,101266.03
2023-05-02T11:13:51.598Z,101271.59
2023-05-02T11:19:02.214Z,101273.63
2023-05-02T11:24:41.673Z,101281.88
2023-05-02T11:29:56.884Z,101283.44
2023-05-02T11:35:02.798Z,101278.22
2023-05-02T11:40:14.746Z,101269.69
2023-05-02T11:45:19.348Z,101275.44
2023-05-02T11:50:26.865Z,101282.22
2023-05-02T11:55:32.148Z,101284.59
2023-05-02T12:00:37.330Z,101285.47
2023-05-02T12:05:41.634Z,101277.97
2023-05-02T12:10:46.775Z,101262.06
2023-05-02T12:15:52.594Z,101273.69
2023-05-02T12:20:57.829Z,101288.03
2023-05-02T12:26:22.689Z,101292.97
2023-05-02T12:31:29.593Z,101284.44
2023-05-02T12:36:34.855Z,101293.81
2023-05-02T12:41:44.430Z,101298.13
2023-05-02T12:47:02.076Z,101299.91
2023-05-02T12:52:06.243Z,101287.50
2023-05-02T12:57:11.228Z,101303.56
2023-05-02T13:02:16.884Z,101303.03
2023-05-02T13:07:22.176Z,101316.47
2023-05-02T13:12:27.802Z,101322.19
2023-05-02T13:17:33.742Z,101320.94
2023-05-02T13:22:39.430Z,101326.69
2023-05-02T13:27:46.545Z,101329.22
2023-05-02T13:32:51.993Z,101336.41
2023-05-02T13:37:57.554Z,101349.75
2023-05-02T13:43:03.218Z,101350.00
2023-05-02T13:48:08.863Z,101351.41
2023-05-02T13:53:14.532Z,101357.56
2023-05-02T13:58:19.863Z,101351.75
2023-05-02T14:03:25.647Z,101348.97
2023-05-02T14:08:31.197Z,101360.91
2023-05-02T14:13:36.567Z,101361.63
2023-05-02T14:18:42.363Z,101370.28
2023-05-02T14:23:47.762Z,101366.13
2023-05-02T14:28:53.474Z,101365.56
2023-05-02T14:33:59.026Z,101367.97
2023-05-02T14:39:04.633Z,101373.16
2023-05-02T14:44:10.567Z,101376.34
2023-05-02T14:49:16.121Z,101378.06
2023-05-02T14:54:29.192Z,101379.63
2023-05-02T14:59:36.615Z,101398.94
2023-05-02T15:04:41.966Z,101403.16
2023-05-02T15:09:47.405Z,101406.88
2023-05-02T15:14:53.038Z,101402.56
2023-05-02T15:19:58.670Z,101409.22
2023-05-02T15:25:05.300Z,101413.63
2023-05-02T15:30:12.168Z,101427.00
2023-05-02T15:35:17.878Z,101426.13
2023-05-02T15:40:23.401Z,101442.94
2023-05-02T15:45:28.566Z,101427.16
2023-05-02T15:50:34.288Z,101424.38
2023-05-02T15:55:39.934Z,101434.44
2023-05-02T16:00:46.695Z,101445.91
2023-05-02T16:05:54.724Z,101455.34
2023-05-02T16:11:02.258Z,101441.88
2023-05-02T16:16:08.286Z,101446.84
2023-05-02T16:21:14.109Z,101461.75
2023-05-02T16:26:21.340Z,101460.78
2023-05-02T16:31:27.008Z,101471.59
2023-05-02T16:36:32.309Z,101468.38
2023-05-02T16:41:37.906Z,101459.03
2023-05-02T16:46:43.735Z,101460.44
2023-05-02T16:51:52.396Z,101469.81
2023-05-02T16:56:58.026Z,101472.63
2023-05-02T17:02:03.640Z,101476.28
2023-05-02T17:07:11.782Z,101494.19
2023-05-02T17:12:24.901Z,101485.81
2023-05-02T17:17:29.745Z,101495.38
2023-05-02T17:22:36.197Z,101475.19
2023-05-02T17:27:41.681Z,101493.94
2023-05-02T17:32:47.500Z,101510.44
2023-05-02T17:37:53.365Z,101500.03
2023-05-02T17:43:00.034Z,101494.13
2023-05-02T17:48:07.051Z,101503.88
2023-05-02T17:53:13.225Z,101506.91
2023-05-02T17:58:19.191Z,101515.25
2023-05-02T18:03:25.249Z,101525.41
2023-05-02T18:08:32.111Z,101513.56
2023-05-02T18:13:40.282Z,101515.78
2023-05-02T18:18:46.206Z,101536.53
2023-05-02T18:23:52.096Z,101533.03
2023-05-02T18:28:57.942Z,101521.38
2023-05-02T18:34:03.611Z,101511.75
2023-05-02T18:39:08.910Z,101506.00
2023-05-02T18:44:14.293Z,101507.59
2023-05-02T18:49:20.154Z,101516.41
2023-05-02T18:54:26.839Z,101521.19
2023-05-02T18:59:32.200Z,101491.88
2023-05-02T19:04:37.651Z,101529.59
2023-05-02T19:09:43.238Z,101539.63
2023-05-02T19:14:51.006Z,101526.50
2023-05-02T19:19:58.277Z,101524.44
2023-05-02T19:25:04.571Z,101535.75
2023-05-02T19:30:10.550Z,101530.13
2023-05-02T19:35:16.325Z,101528.81
2023-05-02T19:40:21.851Z,101531.56
2023-05-02T19:45:28.396Z,101533.13
2023-05-02T19:50:34.118Z,101538.50
2023-05-02T19:55:39.725Z,101540.88
2023-05-02T20:00:46.761Z,101532.72
2023-05-02T20:05:52.711Z,101544.09
2023-05-02T20:10:58.301Z,101538.72
2023-05-02T20:16:03.875Z,101534.63
2023-05-02T20:21:09.749Z,101549.28
2023-05-02T20:26:16.892Z,101551.63
2023-05-02T20:31:23.092Z,101543.44
2023-05-02T20:36:30.002Z,101541.88
2023-05-02T20:41:36.870Z,101546.13
2023-05-02T20:46:43.147Z,101548.13
2023-05-02T20:51:48.558Z,101541.75
2023-05-02T20:56:53.930Z,101542.03
2023-05-02T21:02:00.354Z,101546.66
2023-05-02T21:07:05.905Z,101541.19
2023-05-02T21:12:11.699Z,101512.34
2023-05-02T21:17:17.393Z,101546.47
2023-05-02T21:22:23.033Z,101552.16
2023-05-02T21:27:28.579Z,101562.38
2023-05-02T21:32:34.070Z,101550.00
2023-05-02T21:37:39.915Z,101551.06
2023-05-02T21:42:45.494Z,101564.69
2023-05-02T21:47:51.003Z,101562.59
2023-05-02T21:52:56.498Z,101566.03
2023-05-02T21:58:01.979Z,101580.00
2023-05-02T22:03:09.548Z,101572.47
2023-05-02T22:08:15.164Z,101566.28
2023-05-02T22:13:20.762Z,101567.47
2023-05-02T22:18:26.452Z,101559.81
2023-05-02T22:23:32.310Z,101557.84
2023-05-02T22:28:37.774Z,101560.19
2023-05-02T22:33:45.238Z,101559.06
2023-05-02T22:38:50.937Z,101570.09
2023-05-02T22:43:56.308Z,101563.38
2023-05-02T22:49:03.456Z,101559.63
2023-05-02T22:54:09.138Z,101569.81
2023-05-02T22:59:15.948Z,101557.16
2023-05-02T23:04:21.904Z,101568.97
2023-05-02T23:09:27.493Z,101576.38
2023-05-02T23:14:32.847Z,101572.13
2023-05-02T23:19:38.487Z,101575.25
2023-05-02T23:24:48.132Z,101568.88
2023-05-02T23:29:53.714Z,101569.72
2023-05-02T23:34:59.364Z,101561.00
2023-05-02T23:40:05.649Z,101560.03
2023-05-02T23:45:12.558Z,101557.56
2023-05-02T23:50:19.032Z,101574.59
2023-05-02T23:55:24.662Z,101562.78
